sensor_id;sensor_type;location;lat;lon;timestamp;P1;durP1;ratioP1;P2;durP2;ratioP2
5391;SDS011;2719;53.624;9.786;2022-09-29T00:02:19;9.73;;;4.90;;
5391;SDS011;2719;53.624;9.786;2022-09-29T00:04:45;9.17;;;5.37;;
5391;SDS011;2719;53.624;9.786;2022-09-29T00:07:12;7.07;;;4.40;;
5391;SDS011;2719;53.624;9.786;2022-09-29T00:09:39;6.57;;;4.07;;
5391;SDS011;2719;53.624;9.786;2022-09-29T00:12:05;8.13;;;5.30;;
5391;SDS011;2719;53.624;9.786;2022-09-29T00:14:33;10.17;;;5.37;;
5391;SDS011;2719;53.624;9.786;2022-09-29T00:17:00;10.20;;;5.20;;
5391;SDS011;2719;53.624;9.786;2022-09-29T00:19:27;8.23;;;4.50;;
5391;SDS011;2719;53.624;9.786;2022-09-29T00:21:54;6.63;;;4.27;;
5391;SDS011;2719;53.624;9.786;2022-09-29T00:24:20;6.43;;;3.50;;
5391;SDS011;2719;53.624;9.786;2022-09-29T00:26:47;8.13;;;4.00;;
5391;SDS011;2719;53.624;9.786;2022-09-29T00:29:14;6.30;;;4.17;;
5391;SDS011;2719;53.624;9.786;2022-09-29T00:31:42;7.50;;;3.53;;
5391;SDS011;2719;53.624;9.786;2022-09-29T00:34:08;12.23;;;4.77;;
5391;SDS011;2719;53.624;9.786;2022-09-29T00:36:35;7.97;;;3.17;;
5391;SDS011;2719;53.624;9.786;2022-09-29T00:39:02;6.70;;;3.80;;
5391;SDS011;2719;53.624;9.786;2022-09-29T00:41:30;7.93;;;4.10;;
5391;SDS011;2719;53.624;9.786;2022-09-29T00:43:59;4.33;;;3.17;;
5391;SDS011;2719;53.624;9.786;2022-09-29T00:46:32;6.73;;;3.40;;
5391;SDS011;2719;53.624;9.786;2022-09-29T00:49:09;6.03;;;3.33;;
5391;SDS011;2719;53.624;9.786;2022-09-29T00:51:41;6.00;;;3.80;;
5391;SDS011;2719;53.624;9.786;2022-09-29T00:54:13;9.73;;;5.77;;
5391;SDS011;2719;53.624;9.786;2022-09-29T00:56:41;6.20;;;3.60;;
5391;SDS011;2719;53.624;9.786;2022-09-29T00:59:11;10.20;;;4.57;;
5391;SDS011;2719;53.624;9.786;2022-09-29T01:01:41;8.50;;;4.17;;
5391;SDS011;2719;53.624;9.786;2022-09-29T01:04:10;6.87;;;4.43;;
5391;SDS011;2719;53.624;9.786;2022-09-29T01:06:41;7.40;;;4.37;;
5391;SDS011;2719;53.624;9.786;2022-09-29T01:09:12;10.47;;;4.87;;
5391;SDS011;2719;53.624;9.786;2022-09-29T01:11:41;8.83;;;4.57;;
5391;SDS011;2719;53.624;9.786;2022-09-29T01:14:09;10.37;;;4.80;;
5391;SDS011;2719;53.624;9.786;2022-09-29T01:16:37;8.80;;;4.50;;
5391;SDS011;2719;53.624;9.786;2022-09-29T01:19:06;7.50;;;5.07;;
5391;SDS011;2719;53.624;9.786;2022-09-29T01:21:39;9.27;;;5.40;;
5391;SDS011;2719;53.624;9.786;2022-09-29T01:27:21;5.70;;;3.50;;
5391;SDS011;2719;53.624;9.786;2022-09-29T01:30:01;6.27;;;3.00;;
5391;SDS011;2719;53.624;9.786;2022-09-29T01:33:04;6.40;;;3.57;;
5391;SDS011;2719;53.624;9.786;2022-09-29T01:35:40;9.97;;;4.40;;
5391;SDS011;2719;53.624;9.786;2022-09-29T01:38:18;7.40;;;3.60;;
5391;SDS011;2719;53.624;9.786;2022-09-29T01:40:58;8.67;;;4.37;;
5391;SDS011;2719;53.624;9.786;2022-09-29T01:43:32;7.90;;;3.67;;
5391;SDS011;2719;53.624;9.786;2022-09-29T01:46:01;5.90;;;3.10;;
5391;SDS011;2719;53.624;9.786;2022-09-29T01:48:33;7.63;;;4.37;;
5391;SDS011;2719;53.624;9.786;2022-09-29T01:51:06;7.30;;;4.10;;
5391;SDS011;2719;53.624;9.786;2022-09-29T01:53:39;9.10;;;3.73;;
5391;SDS011;2719;53.624;9.786;2022-09-29T01:56:10;8.07;;;4.10;;
5391;SDS011;2719;53.624;9.786;2022-09-29T01:58:42;8.93;;;4.13;;
5391;SDS011;2719;53.624;9.786;2022-09-29T02:01:14;10.70;;;5.50;;
5391;SDS011;2719;53.624;9.786;2022-09-29T02:03:46;6.67;;;3.43;;
5391;SDS011;2719;53.624;9.786;2022-09-29T02:06:18;9.80;;;3.80;;
5391;SDS011;2719;53.624;9.786;2022-09-29T02:08:48;8.80;;;4.57;;
5391;SDS011;2719;53.624;9.786;2022-09-29T02:11:18;11.60;;;4.20;;
5391;SDS011;2719;53.624;9.786;2022-09-29T02:13:48;6.73;;;4.00;;
5391;SDS011;2719;53.624;9.786;2022-09-29T02:16:20;8.73;;;4.67;;
5391;SDS011;2719;53.624;9.786;2022-09-29T02:18:51;17.30;;;5.33;;
5391;SDS011;2719;53.624;9.786;2022-09-29T02:21:20;8.20;;;4.07;;
5391;SDS011;2719;53.624;9.786;2022-09-29T02:23:47;9.93;;;4.20;;
5391;SDS011;2719;53.624;9.786;2022-09-29T02:26:14;6.73;;;4.13;;
5391;SDS011;2719;53.624;9.786;2022-09-29T02:28:43;9.20;;;4.43;;
5391;SDS011;2719;53.624;9.786;2022-09-29T02:31:10;8.20;;;3.57;;
5391;SDS011;2719;53.624;9.786;2022-09-29T02:33:37;9.50;;;4.30;;
5391;SDS011;2719;53.624;9.786;2022-09-29T02:36:08;7.30;;;4.30;;
5391;SDS011;2719;53.624;9.786;2022-09-29T02:38:45;6.30;;;3.77;;
5391;SDS011;2719;53.624;9.786;2022-09-29T02:41:23;8.47;;;4.57;;
5391;SDS011;2719;53.624;9.786;2022-09-29T02:44:02;7.27;;;3.60;;
5391;SDS011;2719;53.624;9.786;2022-09-29T02:46:55;8.40;;;4.13;;
5391;SDS011;2719;53.624;9.786;2022-09-29T02:49:42;7.67;;;3.80;;
5391;SDS011;2719;53.624;9.786;2022-09-29T02:52:24;8.50;;;4.53;;
5391;SDS011;2719;53.624;9.786;2022-09-29T02:54:59;6.53;;;3.67;;
5391;SDS011;2719;53.624;9.786;2022-09-29T02:57:37;7.57;;;3.70;;
5391;SDS011;2719;53.624;9.786;2022-09-29T03:00:11;5.77;;;3.20;;
5391;SDS011;2719;53.624;9.786;2022-09-29T03:02:42;8.83;;;3.47;;
5391;SDS011;2719;53.624;9.786;2022-09-29T03:05:10;6.07;;;3.20;;
5391;SDS011;2719;53.624;9.786;2022-09-29T03:07:39;7.73;;;3.77;;
5391;SDS011;2719;53.624;9.786;2022-09-29T03:10:07;4.57;;;3.03;;
5391;SDS011;2719;53.624;9.786;2022-09-29T03:12:35;7.77;;;4.60;;
5391;SDS011;2719;53.624;9.786;2022-09-29T03:15:03;8.37;;;4.00;;
5391;SDS011;2719;53.624;9.786;2022-09-29T03:17:30;5.60;;;3.40;;
5391;SDS011;2719;53.624;9.786;2022-09-29T03:19:57;9.00;;;3.80;;
5391;SDS011;2719;53.624;9.786;2022-09-29T03:22:24;5.33;;;3.40;;
5391;SDS011;2719;53.624;9.786;2022-09-29T03:24:52;10.43;;;4.70;;
5391;SDS011;2719;53.624;9.786;2022-09-29T03:27:19;10.73;;;4.90;;
5391;SDS011;2719;53.624;9.786;2022-09-29T03:29:45;6.30;;;3.17;;
5391;SDS011;2719;53.624;9.786;2022-09-29T03:32:12;7.00;;;4.20;;
5391;SDS011;2719;53.624;9.786;2022-09-29T03:34:39;8.97;;;4.20;;
5391;SDS011;2719;53.624;9.786;2022-09-29T03:37:05;9.50;;;5.00;;
5391;SDS011;2719;53.624;9.786;2022-09-29T03:39:32;7.73;;;4.10;;
5391;SDS011;2719;53.624;9.786;2022-09-29T03:42:00;6.77;;;4.37;;
5391;SDS011;2719;53.624;9.786;2022-09-29T03:44:27;10.73;;;4.50;;
5391;SDS011;2719;53.624;9.786;2022-09-29T03:46:53;9.03;;;5.07;;
5391;SDS011;2719;53.624;9.786;2022-09-29T03:49:20;8.33;;;4.23;;
5391;SDS011;2719;53.624;9.786;2022-09-29T03:51:47;9.50;;;4.40;;
5391;SDS011;2719;53.624;9.786;2022-09-29T03:54:13;11.00;;;4.63;;
5391;SDS011;2719;53.624;9.786;2022-09-29T03:56:40;10.37;;;4.90;;
5391;SDS011;2719;53.624;9.786;2022-09-29T03:59:08;8.37;;;4.50;;
5391;SDS011;2719;53.624;9.786;2022-09-29T04:01:36;9.47;;;5.13;;
5391;SDS011;2719;53.624;9.786;2022-09-29T04:04:03;13.90;;;4.30;;
5391;SDS011;2719;53.624;9.786;2022-09-29T04:06:30;7.87;;;4.37;;
5391;SDS011;2719;53.624;9.786;2022-09-29T04:08:58;8.57;;;4.93;;
5391;SDS011;2719;53.624;9.786;2022-09-29T04:11:24;9.20;;;4.73;;
5391;SDS011;2719;53.624;9.786;2022-09-29T04:13:51;12.20;;;5.57;;
5391;SDS011;2719;53.624;9.786;2022-09-29T04:16:19;12.73;;;5.77;;
5391;SDS011;2719;53.624;9.786;2022-09-29T04:18:46;6.60;;;4.40;;
5391;SDS011;2719;53.624;9.786;2022-09-29T04:21:12;11.00;;;6.50;;
5391;SDS011;2719;53.624;9.786;2022-09-29T04:23:40;10.27;;;5.63;;
5391;SDS011;2719;53.624;9.786;2022-09-29T04:26:07;9.43;;;5.40;;
5391;SDS011;2719;53.624;9.786;2022-09-29T04:28:35;9.70;;;5.97;;
5391;SDS011;2719;53.624;9.786;2022-09-29T04:31:02;11.53;;;6.10;;
5391;SDS011;2719;53.624;9.786;2022-09-29T04:33:30;10.20;;;5.67;;
5391;SDS011;2719;53.624;9.786;2022-09-29T04:35:57;12.33;;;6.13;;
5391;SDS011;2719;53.624;9.786;2022-09-29T04:38:25;16.20;;;6.57;;
5391;SDS011;2719;53.624;9.786;2022-09-29T04:40:51;10.93;;;5.70;;
5391;SDS011;2719;53.624;9.786;2022-09-29T04:43:18;9.30;;;5.53;;
5391;SDS011;2719;53.624;9.786;2022-09-29T04:45:45;11.73;;;5.90;;
5391;SDS011;2719;53.624;9.786;2022-09-29T04:48:12;10.73;;;6.27;;
5391;SDS011;2719;53.624;9.786;2022-09-29T04:50:40;10.90;;;6.00;;
5391;SDS011;2719;53.624;9.786;2022-09-29T04:53:08;16.67;;;7.70;;
5391;SDS011;2719;53.624;9.786;2022-09-29T04:55:35;12.30;;;7.10;;
5391;SDS011;2719;53.624;9.786;2022-09-29T04:58:02;10.50;;;5.83;;
5391;SDS011;2719;53.624;9.786;2022-09-29T05:00:29;8.77;;;6.00;;
5391;SDS011;2719;53.624;9.786;2022-09-29T05:02:56;17.40;;;6.00;;
5391;SDS011;2719;53.624;9.786;2022-09-29T05:05:24;9.63;;;5.77;;
5391;SDS011;2719;53.624;9.786;2022-09-29T05:07:52;12.83;;;6.17;;
5391;SDS011;2719;53.624;9.786;2022-09-29T05:10:18;14.40;;;7.43;;
5391;SDS011;2719;53.624;9.786;2022-09-29T05:12:48;14.70;;;6.90;;
5391;SDS011;2719;53.624;9.786;2022-09-29T05:15:16;12.27;;;6.40;;
5391;SDS011;2719;53.624;9.786;2022-09-29T05:17:43;15.50;;;7.73;;
5391;SDS011;2719;53.624;9.786;2022-09-29T05:20:10;10.40;;;5.97;;
5391;SDS011;2719;53.624;9.786;2022-09-29T05:22:37;14.27;;;7.13;;
5391;SDS011;2719;53.624;9.786;2022-09-29T05:25:06;13.10;;;7.50;;
5391;SDS011;2719;53.624;9.786;2022-09-29T05:27:34;13.27;;;7.33;;
5391;SDS011;2719;53.624;9.786;2022-09-29T05:30:01;12.83;;;8.03;;
5391;SDS011;2719;53.624;9.786;2022-09-29T05:32:29;15.60;;;7.30;;
5391;SDS011;2719;53.624;9.786;2022-09-29T05:34:55;10.50;;;6.50;;
5391;SDS011;2719;53.624;9.786;2022-09-29T05:37:22;14.43;;;7.00;;
5391;SDS011;2719;53.624;9.786;2022-09-29T05:39:49;11.93;;;6.43;;
5391;SDS011;2719;53.624;9.786;2022-09-29T05:42:17;16.43;;;7.27;;
5391;SDS011;2719;53.624;9.786;2022-09-29T05:44:44;13.33;;;7.07;;
5391;SDS011;2719;53.624;9.786;2022-09-29T05:47:11;15.47;;;7.53;;
5391;SDS011;2719;53.624;9.786;2022-09-29T05:49:37;14.10;;;7.70;;
5391;SDS011;2719;53.624;9.786;2022-09-29T05:52:04;11.73;;;7.10;;
5391;SDS011;2719;53.624;9.786;2022-09-29T05:54:30;13.87;;;7.53;;
5391;SDS011;2719;53.624;9.786;2022-09-29T05:56:57;12.97;;;8.10;;
5391;SDS011;2719;53.624;9.786;2022-09-29T05:59:25;19.93;;;8.33;;
5391;SDS011;2719;53.624;9.786;2022-09-29T06:01:52;13.23;;;7.60;;
5391;SDS011;2719;53.624;9.786;2022-09-29T06:04:18;15.37;;;9.20;;
5391;SDS011;2719;53.624;9.786;2022-09-29T06:06:45;14.20;;;8.10;;
5391;SDS011;2719;53.624;9.786;2022-09-29T06:09:12;16.73;;;9.13;;
5391;SDS011;2719;53.624;9.786;2022-09-29T06:11:39;18.73;;;8.93;;
5391;SDS011;2719;53.624;9.786;2022-09-29T06:14:06;14.40;;;8.63;;
5391;SDS011;2719;53.624;9.786;2022-09-29T06:16:34;21.10;;;9.47;;
5391;SDS011;2719;53.624;9.786;2022-09-29T06:19:00;15.50;;;8.80;;
5391;SDS011;2719;53.624;9.786;2022-09-29T06:21:29;15.87;;;9.67;;
5391;SDS011;2719;53.624;9.786;2022-09-29T06:23:57;16.40;;;8.50;;
5391;SDS011;2719;53.624;9.786;2022-09-29T06:26:24;16.30;;;8.33;;
5391;SDS011;2719;53.624;9.786;2022-09-29T06:28:52;20.50;;;9.30;;
5391;SDS011;2719;53.624;9.786;2022-09-29T06:31:20;19.67;;;9.07;;
5391;SDS011;2719;53.624;9.786;2022-09-29T06:33:49;14.50;;;9.43;;
5391;SDS011;2719;53.624;9.786;2022-09-29T06:36:17;15.43;;;9.07;;
5391;SDS011;2719;53.624;9.786;2022-09-29T06:39:03;19.10;;;8.60;;
5391;SDS011;2719;53.624;9.786;2022-09-29T06:41:31;16.10;;;9.67;;
5391;SDS011;2719;53.624;9.786;2022-09-29T06:43:59;18.23;;;8.90;;
5391;SDS011;2719;53.624;9.786;2022-09-29T06:46:26;19.30;;;10.60;;
5391;SDS011;2719;53.624;9.786;2022-09-29T06:48:54;18.00;;;9.80;;
5391;SDS011;2719;53.624;9.786;2022-09-29T06:51:22;12.13;;;8.60;;
5391;SDS011;2719;53.624;9.786;2022-09-29T06:53:49;16.00;;;9.30;;
5391;SDS011;2719;53.624;9.786;2022-09-29T06:56:16;14.43;;;8.03;;
5391;SDS011;2719;53.624;9.786;2022-09-29T06:58:43;16.30;;;9.13;;
5391;SDS011;2719;53.624;9.786;2022-09-29T07:01:11;15.07;;;8.70;;
5391;SDS011;2719;53.624;9.786;2022-09-29T07:03:38;15.10;;;9.27;;
5391;SDS011;2719;53.624;9.786;2022-09-29T07:06:07;14.50;;;8.23;;
5391;SDS011;2719;53.624;9.786;2022-09-29T07:08:35;14.83;;;8.00;;
5391;SDS011;2719;53.624;9.786;2022-09-29T07:11:03;14.50;;;8.27;;
5391;SDS011;2719;53.624;9.786;2022-09-29T07:13:30;12.40;;;8.13;;
5391;SDS011;2719;53.624;9.786;2022-09-29T07:16:01;12.63;;;7.33;;
5391;SDS011;2719;53.624;9.786;2022-09-29T07:18:30;24.20;;;7.80;;
5391;SDS011;2719;53.624;9.786;2022-09-29T07:20:58;12.67;;;7.37;;
5391;SDS011;2719;53.624;9.786;2022-09-29T07:23:26;13.47;;;8.80;;
5391;SDS011;2719;53.624;9.786;2022-09-29T07:25:53;12.77;;;7.57;;
5391;SDS011;2719;53.624;9.786;2022-09-29T07:28:20;13.90;;;7.97;;
5391;SDS011;2719;53.624;9.786;2022-09-29T07:30:46;14.47;;;8.13;;
5391;SDS011;2719;53.624;9.786;2022-09-29T07:33:22;11.80;;;7.77;;
5391;SDS011;2719;53.624;9.786;2022-09-29T07:35:50;14.10;;;7.60;;
5391;SDS011;2719;53.624;9.786;2022-09-29T07:38:17;12.77;;;7.73;;
5391;SDS011;2719;53.624;9.786;2022-09-29T07:40:45;13.37;;;7.10;;
5391;SDS011;2719;53.624;9.786;2022-09-29T07:43:12;14.20;;;8.03;;
5391;SDS011;2719;53.624;9.786;2022-09-29T07:45:43;12.50;;;7.33;;
5391;SDS011;2719;53.624;9.786;2022-09-29T07:48:11;12.37;;;7.43;;
5391;SDS011;2719;53.624;9.786;2022-09-29T07:50:38;16.23;;;9.10;;
5391;SDS011;2719;53.624;9.786;2022-09-29T07:53:04;13.30;;;8.30;;
5391;SDS011;2719;53.624;9.786;2022-09-29T07:55:31;12.37;;;7.53;;
5391;SDS011;2719;53.624;9.786;2022-09-29T07:57:59;14.03;;;8.70;;
5391;SDS011;2719;53.624;9.786;2022-09-29T08:00:26;11.60;;;7.90;;
5391;SDS011;2719;53.624;9.786;2022-09-29T08:02:55;13.50;;;8.37;;
5391;SDS011;2719;53.624;9.786;2022-09-29T08:05:24;16.27;;;8.23;;
5391;SDS011;2719;53.624;9.786;2022-09-29T08:07:52;28.10;;;8.20;;
5391;SDS011;2719;53.624;9.786;2022-09-29T08:10:19;22.40;;;8.10;;
5391;SDS011;2719;53.624;9.786;2022-09-29T08:12:46;14.90;;;9.40;;
5391;SDS011;2719;53.624;9.786;2022-09-29T08:15:14;18.70;;;9.37;;
5391;SDS011;2719;53.624;9.786;2022-09-29T08:17:41;14.80;;;8.10;;
5391;SDS011;2719;53.624;9.786;2022-09-29T08:20:08;17.07;;;8.73;;
5391;SDS011;2719;53.624;9.786;2022-09-29T08:22:35;13.53;;;8.13;;
5391;SDS011;2719;53.624;9.786;2022-09-29T08:25:01;14.53;;;7.90;;
5391;SDS011;2719;53.624;9.786;2022-09-29T08:27:29;13.70;;;8.73;;
5391;SDS011;2719;53.624;9.786;2022-09-29T08:29:56;17.53;;;8.17;;
5391;SDS011;2719;53.624;9.786;2022-09-29T08:32:24;17.57;;;8.97;;
5391;SDS011;2719;53.624;9.786;2022-09-29T08:34:52;13.30;;;8.10;;
5391;SDS011;2719;53.624;9.786;2022-09-29T08:37:19;12.20;;;7.67;;
5391;SDS011;2719;53.624;9.786;2022-09-29T08:39:46;13.57;;;8.60;;
5391;SDS011;2719;53.624;9.786;2022-09-29T08:42:14;17.77;;;9.07;;
5391;SDS011;2719;53.624;9.786;2022-09-29T08:44:50;15.90;;;8.70;;
5391;SDS011;2719;53.624;9.786;2022-09-29T08:47:24;14.90;;;9.20;;
5391;SDS011;2719;53.624;9.786;2022-09-29T08:49:55;13.67;;;8.10;;
5391;SDS011;2719;53.624;9.786;2022-09-29T08:52:25;12.07;;;7.30;;
5391;SDS011;2719;53.624;9.786;2022-09-29T08:54:55;13.53;;;8.20;;
5391;SDS011;2719;53.624;9.786;2022-09-29T08:57:27;17.03;;;9.07;;
5391;SDS011;2719;53.624;9.786;2022-09-29T08:59:56;13.03;;;8.03;;
5391;SDS011;2719;53.624;9.786;2022-09-29T09:08:31;11.80;;;7.30;;
5391;SDS011;2719;53.624;9.786;2022-09-29T09:11:20;11.60;;;7.37;;
5391;SDS011;2719;53.624;9.786;2022-09-29T09:14:00;12.07;;;7.13;;
5391;SDS011;2719;53.624;9.786;2022-09-29T09:16:42;15.83;;;7.40;;
5391;SDS011;2719;53.624;9.786;2022-09-29T09:19:29;10.10;;;6.60;;
5391;SDS011;2719;53.624;9.786;2022-09-29T09:22:06;10.27;;;6.87;;
5391;SDS011;2719;53.624;9.786;2022-09-29T09:24:46;12.37;;;8.07;;
5391;SDS011;2719;53.624;9.786;2022-09-29T09:27:26;13.70;;;7.57;;
5391;SDS011;2719;53.624;9.786;2022-09-29T09:30:00;13.30;;;7.03;;
5391;SDS011;2719;53.624;9.786;2022-09-29T09:32:30;12.20;;;7.40;;
5391;SDS011;2719;53.624;9.786;2022-09-29T09:35:09;17.10;;;7.50;;
5391;SDS011;2719;53.624;9.786;2022-09-29T09:37:50;12.33;;;8.17;;
5391;SDS011;2719;53.624;9.786;2022-09-29T09:40:19;11.77;;;7.70;;
5391;SDS011;2719;53.624;9.786;2022-09-29T09:42:49;11.10;;;7.03;;
5391;SDS011;2719;53.624;9.786;2022-09-29T09:45:22;10.87;;;6.67;;
5391;SDS011;2719;53.624;9.786;2022-09-29T09:47:54;11.90;;;8.93;;
5391;SDS011;2719;53.624;9.786;2022-09-29T09:50:28;10.63;;;6.57;;
5391;SDS011;2719;53.624;9.786;2022-09-29T09:52:55;12.80;;;7.77;;
5391;SDS011;2719;53.624;9.786;2022-09-29T09:55:26;8.90;;;6.47;;
5391;SDS011;2719;53.624;9.786;2022-09-29T09:58:01;10.93;;;7.50;;
5391;SDS011;2719;53.624;9.786;2022-09-29T10:00:44;7.43;;;5.60;;
5391;SDS011;2719;53.624;9.786;2022-09-29T10:03:14;9.50;;;6.73;;
5391;SDS011;2719;53.624;9.786;2022-09-29T10:05:43;9.90;;;6.77;;
5391;SDS011;2719;53.624;9.786;2022-09-29T10:08:11;8.70;;;6.20;;
5391;SDS011;2719;53.624;9.786;2022-09-29T10:10:41;10.80;;;6.30;;
5391;SDS011;2719;53.624;9.786;2022-09-29T10:13:09;12.87;;;6.83;;
5391;SDS011;2719;53.624;9.786;2022-09-29T10:15:39;10.80;;;6.60;;
5391;SDS011;2719;53.624;9.786;2022-09-29T10:18:11;14.07;;;7.33;;
5391;SDS011;2719;53.624;9.786;2022-09-29T10:20:43;10.63;;;6.73;;
5391;SDS011;2719;53.624;9.786;2022-09-29T10:23:21;10.60;;;6.73;;
5391;SDS011;2719;53.624;9.786;2022-09-29T10:25:52;11.63;;;6.67;;
5391;SDS011;2719;53.624;9.786;2022-09-29T10:28:22;10.30;;;6.57;;
5391;SDS011;2719;53.624;9.786;2022-09-29T10:30:50;11.17;;;6.17;;
5391;SDS011;2719;53.624;9.786;2022-09-29T10:33:19;8.30;;;5.87;;
5391;SDS011;2719;53.624;9.786;2022-09-29T10:35:50;9.37;;;5.80;;
5391;SDS011;2719;53.624;9.786;2022-09-29T10:38:31;10.07;;;6.40;;
5391;SDS011;2719;53.624;9.786;2022-09-29T10:40:58;9.93;;;5.70;;
5391;SDS011;2719;53.624;9.786;2022-09-29T10:43:31;11.90;;;5.93;;
5391;SDS011;2719;53.624;9.786;2022-09-29T10:46:00;9.43;;;5.20;;
5391;SDS011;2719;53.624;9.786;2022-09-29T10:48:27;9.97;;;6.37;;
5391;SDS011;2719;53.624;9.786;2022-09-29T10:50:56;11.77;;;6.10;;
5391;SDS011;2719;53.624;9.786;2022-09-29T10:53:28;11.07;;;6.57;;
5391;SDS011;2719;53.624;9.786;2022-09-29T10:55:59;14.17;;;7.57;;
5391;SDS011;2719;53.624;9.786;2022-09-29T10:58:32;12.03;;;7.17;;
5391;SDS011;2719;53.624;9.786;2022-09-29T11:01:02;9.43;;;5.93;;
5391;SDS011;2719;53.624;9.786;2022-09-29T11:03:32;9.80;;;5.80;;
5391;SDS011;2719;53.624;9.786;2022-09-29T11:06:03;12.10;;;5.83;;
5391;SDS011;2719;53.624;9.786;2022-09-29T11:08:31;13.47;;;6.30;;
5391;SDS011;2719;53.624;9.786;2022-09-29T11:11:01;11.13;;;6.87;;
5391;SDS011;2719;53.624;9.786;2022-09-29T11:13:35;9.40;;;5.67;;
5391;SDS011;2719;53.624;9.786;2022-09-29T11:16:04;11.20;;;6.43;;
5391;SDS011;2719;53.624;9.786;2022-09-29T11:18:38;11.10;;;5.53;;
5391;SDS011;2719;53.624;9.786;2022-09-29T11:21:13;15.50;;;8.47;;
5391;SDS011;2719;53.624;9.786;2022-09-29T11:24:08;10.43;;;5.30;;
5391;SDS011;2719;53.624;9.786;2022-09-29T11:26:41;10.50;;;5.70;;
5391;SDS011;2719;53.624;9.786;2022-09-29T11:29:19;18.90;;;8.57;;
5391;SDS011;2719;53.624;9.786;2022-09-29T11:32:04;13.33;;;6.90;;
5391;SDS011;2719;53.624;9.786;2022-09-29T11:34:45;10.80;;;5.57;;
5391;SDS011;2719;53.624;9.786;2022-09-29T11:37:26;12.13;;;6.53;;
5391;SDS011;2719;53.624;9.786;2022-09-29T11:40:02;5.77;;;3.50;;
5391;SDS011;2719;53.624;9.786;2022-09-29T11:42:43;8.80;;;5.50;;
5391;SDS011;2719;53.624;9.786;2022-09-29T11:45:21;7.07;;;3.83;;
5391;SDS011;2719;53.624;9.786;2022-09-29T11:48:02;6.70;;;4.30;;
5391;SDS011;2719;53.624;9.786;2022-09-29T11:50:46;9.10;;;3.90;;
5391;SDS011;2719;53.624;9.786;2022-09-29T11:53:24;4.90;;;2.70;;
5391;SDS011;2719;53.624;9.786;2022-09-29T11:56:05;9.80;;;3.80;;
5391;SDS011;2719;53.624;9.786;2022-09-29T11:58:48;4.77;;;3.27;;
5391;SDS011;2719;53.624;9.786;2022-09-29T12:01:25;4.83;;;3.10;;
5391;SDS011;2719;53.624;9.786;2022-09-29T12:04:16;5.00;;;2.83;;
5391;SDS011;2719;53.624;9.786;2022-09-29T12:06:53;4.03;;;2.40;;
5391;SDS011;2719;53.624;9.786;2022-09-29T12:09:42;6.63;;;3.83;;
5391;SDS011;2719;53.624;9.786;2022-09-29T12:12:23;4.90;;;2.90;;
5391;SDS011;2719;53.624;9.786;2022-09-29T12:15:02;8.13;;;4.00;;
5391;SDS011;2719;53.624;9.786;2022-09-29T12:17:42;6.13;;;3.43;;
5391;SDS011;2719;53.624;9.786;2022-09-29T12:20:15;4.83;;;2.90;;
5391;SDS011;2719;53.624;9.786;2022-09-29T12:22:45;6.00;;;2.63;;
5391;SDS011;2719;53.624;9.786;2022-09-29T12:25:16;8.10;;;3.70;;
5391;SDS011;2719;53.624;9.786;2022-09-29T12:27:49;4.63;;;3.33;;
5391;SDS011;2719;53.624;9.786;2022-09-29T12:30:20;5.50;;;3.63;;
5391;SDS011;2719;53.624;9.786;2022-09-29T12:32:51;5.60;;;3.57;;
5391;SDS011;2719;53.624;9.786;2022-09-29T12:35:24;6.07;;;4.20;;
5391;SDS011;2719;53.624;9.786;2022-09-29T12:37:58;5.87;;;4.00;;
5391;SDS011;2719;53.624;9.786;2022-09-29T12:40:36;8.40;;;5.03;;
5391;SDS011;2719;53.624;9.786;2022-09-29T12:43:07;7.27;;;5.70;;
5391;SDS011;2719;53.624;9.786;2022-09-29T12:45:40;7.37;;;4.50;;
5391;SDS011;2719;53.624;9.786;2022-09-29T12:48:18;7.80;;;4.47;;
5391;SDS011;2719;53.624;9.786;2022-09-29T12:51:07;9.20;;;3.77;;
5391;SDS011;2719;53.624;9.786;2022-09-29T12:53:38;7.63;;;4.40;;
5391;SDS011;2719;53.624;9.786;2022-09-29T12:56:18;8.57;;;5.30;;
5391;SDS011;2719;53.624;9.786;2022-09-29T12:58:49;7.17;;;4.60;;
5391;SDS011;2719;53.624;9.786;2022-09-29T13:01:20;8.03;;;5.43;;
5391;SDS011;2719;53.624;9.786;2022-09-29T13:04:14;6.30;;;4.50;;
5391;SDS011;2719;53.624;9.786;2022-09-29T13:10:16;9.60;;;4.77;;
5391;SDS011;2719;53.624;9.786;2022-09-29T13:16:08;7.60;;;5.30;;
5391;SDS011;2719;53.624;9.786;2022-09-29T13:21:38;10.30;;;6.13;;
5391;SDS011;2719;53.624;9.786;2022-09-29T13:24:17;6.87;;;4.67;;
5391;SDS011;2719;53.624;9.786;2022-09-29T13:27:07;8.50;;;5.17;;
5391;SDS011;2719;53.624;9.786;2022-09-29T13:29:43;7.27;;;4.77;;
5391;SDS011;2719;53.624;9.786;2022-09-29T13:32:14;6.77;;;4.70;;
5391;SDS011;2719;53.624;9.786;2022-09-29T13:34:45;8.03;;;5.33;;
5391;SDS011;2719;53.624;9.786;2022-09-29T13:37:15;7.80;;;5.20;;
5391;SDS011;2719;53.624;9.786;2022-09-29T13:39:53;8.33;;;5.70;;
5391;SDS011;2719;53.624;9.786;2022-09-29T13:45:14;15.27;;;5.83;;
5391;SDS011;2719;53.624;9.786;2022-09-29T13:48:02;6.50;;;5.13;;
5391;SDS011;2719;53.624;9.786;2022-09-29T13:50:55;11.70;;;4.90;;
5391;SDS011;2719;53.624;9.786;2022-09-29T13:53:35;8.70;;;5.60;;
5391;SDS011;2719;53.624;9.786;2022-09-29T13:56:13;11.10;;;5.63;;
5391;SDS011;2719;53.624;9.786;2022-09-29T13:58:56;10.23;;;6.00;;
5391;SDS011;2719;53.624;9.786;2022-09-29T14:01:28;12.63;;;5.53;;
5391;SDS011;2719;53.624;9.786;2022-09-29T14:07:00;7.13;;;5.37;;
5391;SDS011;2719;53.624;9.786;2022-09-29T14:09:28;9.03;;;5.27;;
5391;SDS011;2719;53.624;9.786;2022-09-29T14:11:58;12.40;;;5.37;;
5391;SDS011;2719;53.624;9.786;2022-09-29T14:14:28;8.43;;;4.87;;
5391;SDS011;2719;53.624;9.786;2022-09-29T14:17:01;7.63;;;5.60;;
5391;SDS011;2719;53.624;9.786;2022-09-29T14:19:36;6.60;;;5.13;;
5391;SDS011;2719;53.624;9.786;2022-09-29T14:25:30;8.60;;;5.43;;
5391;SDS011;2719;53.624;9.786;2022-09-29T14:28:25;11.33;;;5.60;;
5391;SDS011;2719;53.624;9.786;2022-09-29T14:30:59;12.93;;;5.80;;
5391;SDS011;2719;53.624;9.786;2022-09-29T14:33:28;12.57;;;5.37;;
5391;SDS011;2719;53.624;9.786;2022-09-29T14:36:02;7.40;;;5.30;;
5391;SDS011;2719;53.624;9.786;2022-09-29T14:38:32;9.53;;;5.67;;
5391;SDS011;2719;53.624;9.786;2022-09-29T14:41:10;9.93;;;5.50;;
5391;SDS011;2719;53.624;9.786;2022-09-29T14:43:45;9.90;;;6.47;;
5391;SDS011;2719;53.624;9.786;2022-09-29T14:49:49;9.00;;;4.50;;
5391;SDS011;2719;53.624;9.786;2022-09-29T14:52:45;10.17;;;6.20;;
5391;SDS011;2719;53.624;9.786;2022-09-29T14:55:24;9.63;;;5.47;;
5391;SDS011;2719;53.624;9.786;2022-09-29T14:57:59;7.27;;;5.20;;
5391;SDS011;2719;53.624;9.786;2022-09-29T15:00:45;9.93;;;6.27;;
5391;SDS011;2719;53.624;9.786;2022-09-29T15:03:26;11.53;;;6.83;;
5391;SDS011;2719;53.624;9.786;2022-09-29T15:06:02;10.30;;;6.57;;
5391;SDS011;2719;53.624;9.786;2022-09-29T15:08:32;9.83;;;6.30;;
5391;SDS011;2719;53.624;9.786;2022-09-29T15:11:00;9.87;;;5.77;;
5391;SDS011;2719;53.624;9.786;2022-09-29T15:13:28;12.60;;;5.70;;
5391;SDS011;2719;53.624;9.786;2022-09-29T15:15:57;11.30;;;6.50;;
5391;SDS011;2719;53.624;9.786;2022-09-29T15:18:33;12.30;;;7.07;;
5391;SDS011;2719;53.624;9.786;2022-09-29T15:21:18;10.30;;;6.53;;
5391;SDS011;2719;53.624;9.786;2022-09-29T15:23:54;9.20;;;5.50;;
5391;SDS011;2719;53.624;9.786;2022-09-29T15:26:40;9.17;;;5.50;;
5391;SDS011;2719;53.624;9.786;2022-09-29T15:29:09;9.47;;;5.77;;
5391;SDS011;2719;53.624;9.786;2022-09-29T15:31:39;9.90;;;6.10;;
5391;SDS011;2719;53.624;9.786;2022-09-29T15:34:09;14.90;;;8.60;;
5391;SDS011;2719;53.624;9.786;2022-09-29T15:36:44;9.97;;;6.47;;
5391;SDS011;2719;53.624;9.786;2022-09-29T15:39:25;12.03;;;6.60;;
5391;SDS011;2719;53.624;9.786;2022-09-29T15:42:10;11.60;;;7.30;;
5391;SDS011;2719;53.624;9.786;2022-09-29T15:44:43;8.63;;;6.50;;
5391;SDS011;2719;53.624;9.786;2022-09-29T15:47:19;6.60;;;4.70;;
5391;SDS011;2719;53.624;9.786;2022-09-29T15:49:48;9.83;;;5.90;;
5391;SDS011;2719;53.624;9.786;2022-09-29T15:52:16;9.10;;;5.97;;
5391;SDS011;2719;53.624;9.786;2022-09-29T15:54:51;10.73;;;5.90;;
5391;SDS011;2719;53.624;9.786;2022-09-29T15:57:30;7.80;;;5.80;;
5391;SDS011;2719;53.624;9.786;2022-09-29T16:00:40;8.83;;;5.80;;
5391;SDS011;2719;53.624;9.786;2022-09-29T16:03:09;8.30;;;4.77;;
5391;SDS011;2719;53.624;9.786;2022-09-29T16:05:40;9.50;;;5.43;;
5391;SDS011;2719;53.624;9.786;2022-09-29T16:08:12;12.00;;;5.70;;